createdAt,value
2019-03-20T00:00:16.930Z,88.40
2019-03-20T00:02:45.313Z,89.80
2019-03-20T00:05:13.603Z,89.80
2019-03-20T00:07:42.018Z,90.10
2019-03-20T00:10:11.414Z,90.10
2019-03-20T00:12:39.858Z,90.20
2019-03-20T00:15:14.199Z,90.20
2019-03-20T00:17:42.627Z,90.20
2019-03-20T00:20:11.938Z,90.30
2019-03-20T00:22:42.863Z,90.30
2019-03-20T00:25:10.858Z,90.30
2019-03-20T00:27:40.134Z,90.30
2019-03-20T00:30:11.687Z,90.50
2019-03-20T00:32:40.138Z,90.60
2019-03-20T00:35:08.512Z,90.70
2019-03-20T00:37:37.084Z,90.80
2019-03-20T00:40:12.633Z,90.80
2019-03-20T00:42:40.939Z,90.90
2019-03-20T00:45:14.303Z,90.90
2019-03-20T00:47:42.677Z,91.20
2019-03-20T00:50:15.759Z,91.30
2019-03-20T00:52:44.153Z,91.60
2019-03-20T00:55:21.747Z,91.70
2019-03-20T00:57:50.123Z,91.80
2019-03-20T01:00:27.412Z,91.90
2019-03-20T01:02:55.800Z,92.00
2019-03-20T01:05:24.180Z,92.20
2019-03-20T01:07:52.576Z,92.40
2019-03-20T01:10:24.527Z,92.50
2019-03-20T01:12:52.900Z,92.60
2019-03-20T01:15:21.314Z,92.50
2019-03-20T01:17:49.710Z,92.50
2019-03-20T01:20:21.712Z,92.50
2019-03-20T01:22:50.142Z,92.60
2019-03-20T01:25:18.569Z,92.60
2019-03-20T01:27:46.878Z,92.50
2019-03-20T01:30:37.472Z,92.60
2019-03-20T01:33:07.430Z,92.70
2019-03-20T01:35:35.922Z,92.50
2019-03-20T01:38:04.592Z,92.50
2019-03-20T01:40:33.013Z,92.60
2019-03-20T01:43:01.523Z,92.50
2019-03-20T01:45:29.907Z,92.60
2019-03-20T01:47:58.290Z,92.70
2019-03-20T01:50:26.669Z,92.80
2019-03-20T01:52:55.042Z,92.80
2019-03-20T01:55:23.533Z,92.90
2019-03-20T01:57:51.871Z,93.10
2019-03-20T02:00:20.350Z,93.10
2019-03-20T02:02:48.790Z,93.10
2019-03-20T02:05:17.243Z,93.20
2019-03-20T02:07:45.661Z,93.20
2019-03-20T02:10:16.012Z,93.20
2019-03-20T02:12:44.438Z,93.40
2019-03-20T02:15:14.660Z,93.30
2019-03-20T02:17:43.034Z,93.40
2019-03-20T02:20:20.696Z,93.30
2019-03-20T02:22:49.108Z,93.50
2019-03-20T02:25:17.613Z,93.40
2019-03-20T02:27:46.011Z,93.30
2019-03-20T02:30:16.187Z,93.40
2019-03-20T02:32:44.573Z,93.40
2019-03-20T02:35:12.974Z,93.50
2019-03-20T02:37:42.050Z,93.40
2019-03-20T02:40:14.754Z,93.50
2019-03-20T02:42:43.189Z,93.60
2019-03-20T02:45:13.432Z,93.60
2019-03-20T02:47:41.824Z,93.40
2019-03-20T02:50:11.159Z,93.40
2019-03-20T02:52:39.514Z,93.40
2019-03-20T02:55:11.197Z,93.40
2019-03-20T02:57:39.571Z,93.40
2019-03-20T03:00:13.711Z,93.20
2019-03-20T03:02:42.073Z,93.10
2019-03-20T03:05:10.659Z,92.90
2019-03-20T03:07:39.010Z,92.60
2019-03-20T03:10:15.156Z,92.50
2019-03-20T03:12:43.533Z,92.30
2019-03-20T03:15:12.843Z,92.20
2019-03-20T03:17:41.780Z,91.90
2019-03-20T03:20:13.928Z,91.80
2019-03-20T03:22:42.353Z,91.70
2019-03-20T03:25:11.752Z,91.90
2019-03-20T03:27:40.111Z,91.50
2019-03-20T03:30:11.789Z,91.50
2019-03-20T03:32:40.270Z,91.40
2019-03-20T03:35:08.656Z,91.20
2019-03-20T03:37:37.165Z,91.30
2019-03-20T03:40:11.406Z,91.30
2019-03-20T03:42:39.778Z,91.30
2019-03-20T03:45:12.527Z,91.40
2019-03-20T03:47:41.021Z,91.30
2019-03-20T03:50:10.110Z,91.40
2019-03-20T03:52:38.494Z,91.50
2019-03-20T03:55:08.499Z,91.50
2019-03-20T03:57:36.870Z,91.50
2019-03-20T04:00:08.786Z,91.60
2019-03-20T04:02:37.208Z,91.60
2019-03-20T04:05:05.855Z,91.50
2019-03-20T04:07:34.295Z,91.50
2019-03-20T04:10:02.812Z,91.60
2019-03-20T04:12:31.176Z,91.70
2019-03-20T04:14:59.550Z,91.80
2019-03-20T04:17:27.932Z,92.30
2019-03-20T04:19:56.350Z,92.00
2019-03-20T04:22:24.737Z,92.00
2019-03-20T04:24:53.134Z,92.20
2019-03-20T04:27:22.060Z,92.40
2019-03-20T04:29:50.418Z,92.70
2019-03-20T04:32:18.803Z,92.80
2019-03-20T04:34:47.175Z,92.90
2019-03-20T04:37:15.553Z,92.90
2019-03-20T04:39:44.024Z,92.90
2019-03-20T04:42:12.382Z,93.10
2019-03-20T04:44:40.949Z,93.20
2019-03-20T04:47:09.317Z,93.30
2019-03-20T04:49:37.711Z,93.50
2019-03-20T04:52:06.097Z,93.50
2019-03-20T04:54:34.471Z,93.70
2019-03-20T04:57:02.890Z,93.70
2019-03-20T04:59:31.346Z,93.70
2019-03-20T05:01:59.708Z,93.60
2019-03-20T05:04:28.086Z,93.70
2019-03-20T05:06:59.207Z,93.70
2019-03-20T05:09:26.609Z,93.90
2019-03-20T05:11:55.003Z,93.90
2019-03-20T05:14:23.466Z,93.80
2019-03-20T05:16:51.871Z,93.70
2019-03-20T05:19:20.276Z,93.70
2019-03-20T05:21:48.663Z,93.80
2019-03-20T05:24:17.177Z,93.80
2019-03-20T05:26:45.526Z,93.60
2019-03-20T05:29:13.930Z,94.00
2019-03-20T05:31:42.314Z,94.00
2019-03-20T05:34:10.771Z,94.10
2019-03-20T05:36:39.137Z,94.10
2019-03-20T05:39:07.535Z,93.90
2019-03-20T05:41:36.214Z,94.00
2019-03-20T05:44:04.608Z,93.90
2019-03-20T05:46:32.975Z,93.80
2019-03-20T05:49:01.359Z,94.20
2019-03-20T05:51:29.806Z,93.80
2019-03-20T05:53:58.282Z,93.80
2019-03-20T05:56:26.660Z,93.80
2019-03-20T05:58:55.154Z,93.80
2019-03-20T06:01:23.495Z,93.80
2019-03-20T06:03:51.895Z,93.80
2019-03-20T06:06:20.192Z,93.60
2019-03-20T06:08:48.617Z,93.70
2019-03-20T06:11:16.958Z,93.70
2019-03-20T06:13:45.344Z,93.70
2019-03-20T06:16:13.637Z,93.80
2019-03-20T06:18:42.101Z,93.90
2019-03-20T06:21:10.533Z,93.80
2019-03-20T06:23:39.007Z,93.90
2019-03-20T06:26:07.367Z,94.00
2019-03-20T06:28:35.747Z,94.00
2019-03-20T06:31:04.141Z,94.10
2019-03-20T06:33:32.510Z,94.10
2019-03-20T06:36:00.998Z,94.30
2019-03-20T06:38:29.940Z,94.50
2019-03-20T06:40:58.306Z,94.60
2019-03-20T06:43:26.698Z,94.90
2019-03-20T06:45:55.125Z,95.10
2019-03-20T06:48:23.502Z,95.30
2019-03-20T06:50:51.931Z,95.60
2019-03-20T06:53:20.298Z,95.90
2019-03-20T06:55:48.716Z,96.00
2019-03-20T06:58:17.148Z,96.20
2019-03-20T07:00:51.665Z,96.20
2019-03-20T07:03:29.116Z,96.50
2019-03-20T07:06:15.418Z,96.40
2019-03-20T07:08:58.931Z,96.70
2019-03-20T07:11:26.401Z,96.80
2019-03-20T07:13:54.873Z,96.90
2019-03-20T07:16:23.260Z,97.20
2019-03-20T07:18:51.637Z,97.10
2019-03-20T07:21:19.982Z,97.30
2019-03-20T07:23:48.355Z,97.20
2019-03-20T07:26:16.755Z,97.10
2019-03-20T07:28:45.125Z,97.10
2019-03-20T07:31:15.698Z,97.30
2019-03-20T07:33:43.538Z,97.40
2019-03-20T07:36:11.906Z,97.40
2019-03-20T07:38:40.273Z,97.50
2019-03-20T07:41:08.663Z,97.40
2019-03-20T07:43:37.058Z,97.40
2019-03-20T07:46:05.420Z,97.70
2019-03-20T07:48:33.841Z,97.50
2019-03-20T07:51:02.223Z,97.30
2019-03-20T07:53:30.584Z,97.30
2019-03-20T07:55:58.974Z,97.20
2019-03-20T07:58:27.434Z,97.40
2019-03-20T08:00:55.795Z,97.50
2019-03-20T08:03:24.273Z,97.30
2019-03-20T08:05:52.634Z,97.20
2019-03-20T08:08:21.033Z,97.00
2019-03-20T08:10:50.510Z,97.10
2019-03-20T08:13:18.909Z,97.10
2019-03-20T08:15:47.340Z,97.00
2019-03-20T08:18:15.705Z,96.80
2019-03-20T08:20:44.065Z,97.10
2019-03-20T08:23:12.451Z,97.10
2019-03-20T08:25:40.951Z,97.10
2019-03-20T08:28:09.313Z,97.20
2019-03-20T08:30:38.022Z,97.40
2019-03-20T08:33:06.413Z,97.10
2019-03-20T08:35:34.793Z,97.20
2019-03-20T08:38:03.254Z,97.40
2019-03-20T08:40:31.625Z,97.30
2019-03-20T08:43:00.002Z,96.80
2019-03-20T08:45:28.407Z,96.90
2019-03-20T08:47:56.766Z,96.40
2019-03-20T08:50:25.878Z,96.20
2019-03-20T08:52:54.303Z,96.40
2019-03-20T08:55:22.782Z,96.40
2019-03-20T08:57:51.144Z,95.90
2019-03-20T09:00:22.991Z,95.80
2019-03-20T09:02:51.412Z,95.90
2019-03-20T09:05:19.751Z,95.70
2019-03-20T09:07:48.085Z,96.00
2019-03-20T09:10:21.226Z,95.90
2019-03-20T09:12:49.904Z,95.90
2019-03-20T09:15:19.187Z,96.30
2019-03-20T09:17:47.566Z,96.30
2019-03-20T09:20:16.667Z,96.50
2019-03-20T09:22:45.066Z,96.80
2019-03-20T09:25:19.590Z,96.50
2019-03-20T09:27:48.021Z,96.80
2019-03-20T09:30:26.583Z,97.00
2019-03-20T09:32:55.032Z,96.90
2019-03-20T09:35:23.410Z,96.70
2019-03-20T09:37:52.784Z,96.70
2019-03-20T09:40:23.632Z,96.80
2019-03-20T09:42:52.330Z,97.10
2019-03-20T09:45:23.788Z,97.30
2019-03-20T09:47:52.096Z,97.30
2019-03-20T09:50:22.594Z,97.30
2019-03-20T09:52:51.034Z,97.50
2019-03-20T09:55:19.384Z,97.30
2019-03-20T09:57:47.748Z,97.40
2019-03-20T10:00:29.188Z,97.70
2019-03-20T10:02:57.533Z,97.70
2019-03-20T10:05:25.866Z,97.70
2019-03-20T10:07:54.246Z,98.10
2019-03-20T10:10:30.677Z,97.90
2019-03-20T10:12:59.025Z,98.10
2019-03-20T10:15:29.477Z,98.00
2019-03-20T10:17:57.869Z,98.20
2019-03-20T10:20:26.402Z,98.00
2019-03-20T10:22:55.482Z,98.10
2019-03-20T10:25:23.829Z,98.20
2019-03-20T10:27:52.315Z,98.10
2019-03-20T10:30:23.122Z,98.10
2019-03-20T10:32:51.518Z,98.10
2019-03-20T10:35:19.902Z,98.20
2019-03-20T10:37:49.559Z,98.30
2019-03-20T10:40:24.720Z,98.20
2019-03-20T10:42:53.107Z,98.20
2019-03-20T10:45:21.563Z,98.40
2019-03-20T10:47:52.725Z,98.30
2019-03-20T10:50:24.615Z,98.10
2019-03-20T10:52:52.306Z,98.00
2019-03-20T10:55:20.617Z,98.00
2019-03-20T10:57:48.980Z,98.10
2019-03-20T11:00:27.508Z,98.10
2019-03-20T11:02:55.875Z,97.90
2019-03-20T11:05:24.281Z,97.90
2019-03-20T11:07:52.855Z,97.90
2019-03-20T11:10:25.933Z,98.00
2019-03-20T11:12:54.522Z,98.00
2019-03-20T11:15:23.493Z,98.10
2019-03-20T11:17:51.854Z,97.80
2019-03-20T11:20:23.787Z,98.10
2019-03-20T11:22:52.975Z,98.10
2019-03-20T11:25:26.311Z,97.90
2019-03-20T11:27:54.679Z,98.10
2019-03-20T11:30:27.699Z,97.80
2019-03-20T11:32:56.142Z,98.00
2019-03-20T11:35:24.522Z,97.90
2019-03-20T11:37:52.992Z,97.90
2019-03-20T11:40:28.641Z,97.90
2019-03-20T11:42:58.789Z,98.00
2019-03-20T11:45:27.153Z,98.30
2019-03-20T11:47:55.538Z,97.80
2019-03-20T11:50:35.614Z,97.50
2019-03-20T11:53:05.429Z,97.40
2019-03-20T11:55:33.817Z,97.60
2019-03-20T11:58:02.262Z,97.20
2019-03-20T12:00:30.941Z,97.20
2019-03-20T12:02:59.417Z,97.20
2019-03-20T12:05:27.819Z,96.80
2019-03-20T12:07:56.271Z,96.70
2019-03-20T12:10:29.063Z,96.60
2019-03-20T12:12:57.435Z,96.50
2019-03-20T12:15:25.830Z,96.20
2019-03-20T12:17:54.194Z,96.10
2019-03-20T12:20:23.482Z,95.70
2019-03-20T12:22:52.030Z,95.40
2019-03-20T12:25:33.262Z,95.50
2019-03-20T12:28:01.690Z,95.00
2019-03-20T12:30:37.179Z,94.90
2019-03-20T12:33:05.784Z,94.80
2019-03-20T12:35:39.049Z,94.80
2019-03-20T12:38:14.236Z,94.40
2019-03-20T12:40:37.488Z,94.40
2019-03-20T12:43:06.115Z,94.20
2019-03-20T12:45:37.736Z,93.80
2019-03-20T12:48:07.519Z,93.90
2019-03-20T12:50:35.980Z,93.70
2019-03-20T12:53:06.144Z,93.30
2019-03-20T12:55:34.552Z,93.20
2019-03-20T12:58:03.033Z,93.00
2019-03-20T13:00:31.403Z,92.80
2019-03-20T13:02:59.824Z,92.40
2019-03-20T13:05:29.089Z,92.10
2019-03-20T13:08:05.441Z,91.40
2019-03-20T13:10:28.579Z,90.80
2019-03-20T13:12:56.926Z,89.60
2019-03-20T13:15:27.317Z,84.60
2019-03-20T13:17:56.314Z,78.60
2019-03-20T13:20:24.719Z,75.90
2019-03-20T13:23:07.487Z,75.70
2019-03-20T13:25:35.859Z,74.50
2019-03-20T13:28:04.262Z,77.20
2019-03-20T13:30:41.299Z,79.90
2019-03-20T13:33:11.305Z,80.40
2019-03-20T13:35:39.705Z,80.30
2019-03-20T13:38:08.101Z,76.20
2019-03-20T13:40:36.489Z,73.90
2019-03-20T13:43:05.129Z,72.70
2019-03-20T13:45:33.495Z,69.60
2019-03-20T13:48:01.878Z,70.20
2019-03-20T13:50:30.237Z,72.30
2019-03-20T13:52:58.685Z,73.50
2019-03-20T13:55:27.125Z,74.90
2019-03-20T13:57:55.575Z,76.20
2019-03-20T14:00:28.494Z,77.50
2019-03-20T14:02:56.887Z,76.60
2019-03-20T14:05:27.000Z,76.70
2019-03-20T14:07:55.362Z,76.10
2019-03-20T14:10:27.665Z,77.00
2019-03-20T14:12:55.974Z,78.50
2019-03-20T14:15:24.390Z,78.70
2019-03-20T14:17:52.842Z,79.10
2019-03-20T14:20:26.693Z,79.10
2019-03-20T14:22:55.106Z,79.40
2019-03-20T14:25:23.538Z,79.50
2019-03-20T14:27:52.468Z,80.40
2019-03-20T14:30:31.809Z,80.90
2019-03-20T14:33:00.192Z,81.10
2019-03-20T14:35:28.582Z,81.00
2019-03-20T14:37:57.894Z,80.60
2019-03-20T14:40:37.009Z,80.90
2019-03-20T14:43:03.967Z,80.50
2019-03-20T14:45:32.379Z,80.90
2019-03-20T14:48:00.755Z,79.50
2019-03-20T14:50:31.279Z,80.00
2019-03-20T14:52:59.646Z,79.70
2019-03-20T14:55:28.033Z,79.90
2019-03-20T14:57:56.358Z,79.80
2019-03-20T15:00:31.112Z,79.80
2019-03-20T15:02:59.497Z,79.80
2019-03-20T15:05:27.901Z,78.40
2019-03-20T15:07:56.264Z,77.90
2019-03-20T15:10:28.343Z,77.70
2019-03-20T15:12:56.883Z,78.10
2019-03-20T15:15:45.940Z,77.60
2019-03-20T15:18:14.302Z,77.70
2019-03-20T15:20:42.664Z,77.30
2019-03-20T15:23:11.065Z,77.30
2019-03-20T15:25:39.428Z,77.10
2019-03-20T15:28:07.826Z,76.60
2019-03-20T15:30:36.206Z,76.60
2019-03-20T15:33:04.689Z,77.30
2019-03-20T15:35:33.113Z,75.90
2019-03-20T15:38:01.501Z,76.70
2019-03-20T15:40:30.713Z,75.80
2019-03-20T15:42:59.237Z,75.20
2019-03-20T15:45:27.537Z,74.50
2019-03-20T15:47:55.958Z,73.60
2019-03-20T15:50:28.083Z,72.70
2019-03-20T15:52:56.462Z,70.20
2019-03-20T15:55:41.980Z,67.90
2019-03-20T15:58:11.129Z,66.60
2019-03-20T16:00:39.521Z,65.70
2019-03-20T16:03:10.926Z,64.50
2019-03-20T16:05:39.374Z,64.90
2019-03-20T16:08:07.814Z,66.60
2019-03-20T16:10:36.148Z,66.10
2019-03-20T16:13:04.661Z,66.70
2019-03-20T16:15:32.999Z,66.40
2019-03-20T16:18:01.455Z,67.10
2019-03-20T16:20:30.088Z,67.50
2019-03-20T16:22:58.475Z,69.60
2019-03-20T16:25:26.869Z,68.30
2019-03-20T16:27:55.257Z,68.30
2019-03-20T16:30:27.941Z,68.40
2019-03-20T16:32:56.641Z,68.50
2019-03-20T16:35:25.049Z,69.30
2019-03-20T16:37:53.451Z,70.00
2019-03-20T16:40:26.365Z,69.20
2019-03-20T16:42:54.835Z,69.70
2019-03-20T16:45:31.483Z,70.30
2019-03-20T16:47:59.867Z,70.70
2019-03-20T16:50:28.265Z,70.30
2019-03-20T16:52:56.639Z,70.90
2019-03-20T16:55:24.998Z,71.00
2019-03-20T16:57:53.361Z,71.30
2019-03-20T17:00:45.532Z,71.90
2019-03-20T17:03:13.923Z,71.30
2019-03-20T17:05:42.313Z,71.70
2019-03-20T17:08:12.600Z,72.20
2019-03-20T17:10:43.049Z,72.50
2019-03-20T17:13:11.445Z,73.20
2019-03-20T17:15:43.865Z,73.50
2019-03-20T17:18:12.225Z,73.70
2019-03-20T17:20:40.584Z,74.00
2019-03-20T17:23:08.979Z,73.90
2019-03-20T17:25:37.409Z,74.20
2019-03-20T17:28:06.335Z,74.60
2019-03-20T17:30:40.485Z,75.10
2019-03-20T17:33:08.886Z,75.40
2019-03-20T17:35:37.345Z,75.50
2019-03-20T17:38:05.781Z,76.00
2019-03-20T17:40:34.165Z,76.20
2019-03-20T17:43:02.586Z,76.80
2019-03-20T17:45:30.958Z,77.10
2019-03-20T17:47:59.387Z,77.20
2019-03-20T17:50:35.454Z,77.70
2019-03-20T17:53:04.794Z,78.20
2019-03-20T17:55:33.266Z,78.60
2019-03-20T17:58:01.979Z,79.10
2019-03-20T18:00:33.059Z,79.60
2019-03-20T18:03:01.420Z,79.90
2019-03-20T18:05:29.855Z,80.40
2019-03-20T18:07:58.227Z,80.80
2019-03-20T18:10:26.662Z,81.00
2019-03-20T18:12:55.003Z,81.30
2019-03-20T18:15:23.356Z,81.50
2019-03-20T18:17:51.740Z,81.90
2019-03-20T18:20:20.685Z,81.40
2019-03-20T18:22:49.084Z,82.50
2019-03-20T18:25:17.470Z,82.50
2019-03-20T18:27:45.857Z,82.60
2019-03-20T18:30:16.692Z,83.20
2019-03-20T18:32:45.101Z,83.60
2019-03-20T18:35:13.910Z,84.00
2019-03-20T18:37:42.352Z,84.10
2019-03-20T18:40:15.736Z,84.60
2019-03-20T18:42:44.209Z,85.00
2019-03-20T18:45:17.837Z,85.40
2019-03-20T18:47:46.226Z,85.40
2019-03-20T18:50:16.666Z,85.80
2019-03-20T18:52:45.169Z,86.30
2019-03-20T18:55:17.414Z,86.60
2019-03-20T18:57:45.877Z,86.70
2019-03-20T19:00:17.527Z,86.80
2019-03-20T19:02:45.979Z,87.10
2019-03-20T19:05:23.683Z,87.30
2019-03-20T19:07:52.289Z,87.40
2019-03-20T19:10:20.777Z,87.20
2019-03-20T19:12:49.228Z,87.50
2019-03-20T19:15:17.592Z,87.50
2019-03-20T19:17:45.984Z,87.60
2019-03-20T19:20:15.169Z,87.90
2019-03-20T19:22:43.567Z,88.10
2019-03-20T19:25:18.550Z,88.40
2019-03-20T19:27:47.016Z,89.20
2019-03-20T19:30:23.171Z,88.80
2019-03-20T19:32:51.572Z,89.10
2019-03-20T19:35:19.933Z,89.30
2019-03-20T19:37:48.313Z,89.40
2019-03-20T19:40:20.414Z,89.80
2019-03-20T19:42:48.815Z,90.20
2019-03-20T19:45:18.813Z,90.30
2019-03-20T19:47:47.200Z,90.10
2019-03-20T19:50:20.688Z,90.20
2019-03-20T19:52:50.046Z,90.30
2019-03-20T19:55:18.866Z,90.40
2019-03-20T19:57:47.252Z,90.40
2019-03-20T20:00:25.912Z,90.90
2019-03-20T20:02:54.326Z,90.60
2019-03-20T20:05:22.707Z,91.00
2019-03-20T20:07:51.173Z,90.90
2019-03-20T20:10:20.218Z,90.90
2019-03-20T20:12:48.583Z,91.00
2019-03-20T20:15:20.228Z,91.30
2019-03-20T20:17:48.617Z,91.50
2019-03-20T20:20:19.267Z,91.60
2019-03-20T20:22:47.637Z,91.90
2019-03-20T20:25:16.129Z,92.10
2019-03-20T20:27:44.521Z,92.20
2019-03-20T20:30:17.511Z,92.50
2019-03-20T20:32:45.974Z,92.40
2019-03-20T20:35:15.278Z,92.50
2019-03-20T20:37:44.697Z,92.60
2019-03-20T20:40:15.690Z,92.80
2019-03-20T20:42:44.072Z,92.70
2019-03-20T20:45:12.611Z,92.70
2019-03-20T20:47:41.010Z,92.50
2019-03-20T20:50:14.108Z,92.60
2019-03-20T20:52:42.673Z,92.60
2019-03-20T20:55:16.586Z,92.50
2019-03-20T20:57:45.054Z,92.80
2019-03-20T21:00:16.061Z,92.50
2019-03-20T21:02:44.430Z,92.50
2019-03-20T21:05:12.824Z,92.50
2019-03-20T21:07:41.392Z,92.60
2019-03-20T21:10:14.602Z,92.50
2019-03-20T21:12:54.857Z,92.50
2019-03-20T21:15:30.596Z,92.70
2019-03-20T21:18:20.036Z,92.70
2019-03-20T21:20:48.934Z,92.70
2019-03-20T21:23:39.815Z,92.60
2019-03-20T21:26:25.593Z,92.60
2019-03-20T21:29:30.729Z,92.70
2019-03-20T21:32:07.974Z,92.70
2019-03-20T21:34:57.697Z,92.70
2019-03-20T21:37:32.189Z,92.70
2019-03-20T21:40:00.517Z,92.80
2019-03-20T21:42:51.640Z,92.80
2019-03-20T21:45:56.104Z,92.80
2019-03-20T21:48:24.510Z,92.90
2019-03-20T21:50:56.182Z,93.00
2019-03-20T21:53:44.350Z,92.80
2019-03-20T21:59:25.795Z,93.00
2019-03-20T22:02:12.302Z,93.20
2019-03-20T22:04:40.728Z,93.20
2019-03-20T22:07:12.350Z,93.30
2019-03-20T22:09:53.125Z,93.30
2019-03-20T22:12:49.892Z,93.40
2019-03-20T22:15:21.513Z,93.30
2019-03-20T22:18:14.035Z,93.30
2019-03-20T22:20:51.484Z,93.60
2019-03-20T22:23:23.145Z,93.60
2019-03-20T22:26:00.829Z,93.70
2019-03-20T22:29:02.851Z,93.70
2019-03-20T22:31:34.341Z,93.80
2019-03-20T22:34:25.626Z,93.90
2019-03-20T22:36:54.193Z,94.00
2019-03-20T22:39:57.229Z,94.00
2019-03-20T22:42:40.807Z,93.90
2019-03-20T22:45:21.152Z,93.90
2019-03-20T22:48:15.714Z,93.90
2019-03-20T22:50:59.368Z,93.80
2019-03-20T22:53:30.955Z,93.40
2019-03-20T22:56:11.474Z,92.90
2019-03-20T22:58:48.938Z,92.50
2019-03-20T23:01:26.241Z,92.10
2019-03-20T23:04:03.533Z,91.90
2019-03-20T23:06:31.985Z,91.70
2019-03-20T23:09:00.488Z,91.70
2019-03-20T23:11:28.889Z,91.60
2019-03-20T23:13:57.297Z,91.60
2019-03-20T23:16:25.722Z,91.60
2019-03-20T23:18:56.127Z,91.70
2019-03-20T23:21:24.295Z,91.70
2019-03-20T23:23:52.793Z,91.80
2019-03-20T23:26:21.225Z,91.80
2019-03-20T23:28:49.602Z,91.80
2019-03-20T23:31:18.087Z,91.80
2019-03-20T23:33:46.464Z,91.70
2019-03-20T23:36:14.871Z,91.80
2019-03-20T23:38:43.245Z,91.70
2019-03-20T23:41:11.665Z,91.80
2019-03-20T23:43:40.140Z,91.90
2019-03-20T23:46:08.508Z,92.00
2019-03-20T23:48:43.446Z,92.10
2019-03-20T23:51:20.504Z,92.10
2019-03-20T23:53:50.807Z,92.20
2019-03-20T23:56:19.248Z,92.20
